sensor_id;sensor_type;location;lat;lon;timestamp;pressure;altitude;pressure_sealevel;temperature;humidity
13241;BME280;6687;47.790;7.322;2023-03-04T06:12:03;99588.59;;;2.03;81.29
13241;BME280;6687;47.790;7.322;2023-03-04T06:14:30;99590.31;;;2.04;80.41
13241;BME280;6687;47.790;7.322;2023-03-04T06:16:57;99592.59;;;1.98;79.66
13241;BME280;6687;47.790;7.322;2023-03-04T06:19:23;99595.44;;;2.04;79.92
13241;BME280;6687;47.790;7.322;2023-03-04T06:21:50;99600.81;;;2.10;79.29
13241;BME280;6687;47.790;7.322;2023-03-04T06:24:17;99602.31;;;2.05;78.91
13241;BME280;6687;47.790;7.322;2023-03-04T06:26:44;99607.88;;;1.78;79.03
13241;BME280;6687;47.790;7.322;2023-03-04T06:29:13;99611.94;;;1.75;79.01
13241;BME280;6687;47.790;7.322;2023-03-04T06:31:39;99615.63;;;1.62;79.75
13241;BME280;6687;47.790;7.322;2023-03-04T06:34:07;99612.41;;;1.66;79.87
13241;BME280;6687;47.790;7.322;2023-03-04T06:36:34;99625.53;;;1.74;79.31
13241;BME280;6687;47.790;7.322;2023-03-04T06:39:01;99623.06;;;1.93;79.36
13241;BME280;6687;47.790;7.322;2023-03-04T06:41:28;99627.59;;;1.99;79.14
13241;BME280;6687;47.790;7.322;2023-03-04T06:43:54;99626.69;;;1.81;79.00
13241;BME280;6687;47.790;7.322;2023-03-04T06:46:22;99631.41;;;2.09;79.09
13241;BME280;6687;47.790;7.322;2023-03-04T06:48:49;99629.50;;;1.85;79.18
13241;BME280;6687;47.790;7.322;2023-03-04T06:51:16;99640.66;;;1.69;79.54
13241;BME280;6687;47.790;7.322;2023-03-04T06:53:44;99636.03;;;1.62;80.30
13241;BME280;6687;47.790;7.322;2023-03-04T06:56:12;99643.53;;;1.59;80.98
13241;BME280;6687;47.790;7.322;2023-03-04T06:58:40;99647.03;;;1.61;81.57
13241;BME280;6687;47.790;7.322;2023-03-04T07:01:11;99650.72;;;2.02;80.31
13241;BME280;6687;47.790;7.322;2023-03-04T07:03:40;99647.00;;;2.13;79.51
13241;BME280;6687;47.790;7.322;2023-03-04T07:06:08;99650.22;;;2.29;78.91
13241;BME280;6687;47.790;7.322;2023-03-04T07:08:35;99646.81;;;2.28;78.89
13241;BME280;6687;47.790;7.322;2023-03-04T07:11:02;99648.59;;;2.11;78.83
13241;BME280;6687;47.790;7.322;2023-03-04T07:13:29;99662.44;;;2.16;78.88
13241;BME280;6687;47.790;7.322;2023-03-04T07:15:58;99670.94;;;2.15;78.89
13241;BME280;6687;47.790;7.322;2023-03-04T07:18:25;99665.38;;;1.88;80.20
13241;BME280;6687;47.790;7.322;2023-03-04T07:20:53;99664.97;;;1.97;80.58
13241;BME280;6687;47.790;7.322;2023-03-04T07:23:20;99665.47;;;2.08;80.18
13241;BME280;6687;47.790;7.322;2023-03-04T07:25:48;99672.59;;;1.61;81.39
13241;BME280;6687;47.790;7.322;2023-03-04T07:28:15;99671.44;;;1.90;81.75
13241;BME280;6687;47.790;7.322;2023-03-04T07:30:41;99669.19;;;1.78;81.86
13241;BME280;6687;47.790;7.322;2023-03-04T07:33:08;99670.00;;;2.13;81.58
13241;BME280;6687;47.790;7.322;2023-03-04T07:35:36;99679.00;;;1.87;81.92
13241;BME280;6687;47.790;7.322;2023-03-04T07:38:04;99672.31;;;1.91;81.73
13241;BME280;6687;47.790;7.322;2023-03-04T07:40:31;99671.16;;;2.02;81.26
13241;BME280;6687;47.790;7.322;2023-03-04T07:42:57;99679.00;;;2.25;81.07
13241;BME280;6687;47.790;7.322;2023-03-04T07:45:25;99680.31;;;2.34;80.96
13241;BME280;6687;47.790;7.322;2023-03-04T07:47:52;99677.13;;;1.85;81.75
13241;BME280;6687;47.790;7.322;2023-03-04T07:50:19;99682.31;;;1.68;82.53
13241;BME280;6687;47.790;7.322;2023-03-04T07:52:47;99679.06;;;2.44;81.46
13241;BME280;6687;47.790;7.322;2023-03-04T07:55:17;99682.03;;;1.98;82.15
13241;BME280;6687;47.790;7.322;2023-03-04T07:57:45;99684.66;;;2.17;81.56
13241;BME280;6687;47.790;7.322;2023-03-04T08:00:15;99683.78;;;2.35;81.27
13241;BME280;6687;47.790;7.322;2023-03-04T08:02:42;99688.81;;;2.33;80.98
13241;BME280;6687;47.790;7.322;2023-03-04T08:05:09;99684.78;;;2.21;81.04
13241;BME280;6687;47.790;7.322;2023-03-04T08:07:35;99692.13;;;2.31;82.87
13241;BME280;6687;47.790;7.322;2023-03-04T08:10:03;99691.38;;;1.79;82.76
13241;BME280;6687;47.790;7.322;2023-03-04T08:12:31;99694.00;;;2.35;82.00
13241;BME280;6687;47.790;7.322;2023-03-04T08:14:57;99684.09;;;2.05;82.32
13241;BME280;6687;47.790;7.322;2023-03-04T08:17:24;99687.00;;;1.95;82.91
13241;BME280;6687;47.790;7.322;2023-03-04T08:19:54;99681.16;;;2.15;82.58
13241;BME280;6687;47.790;7.322;2023-03-04T08:22:20;99683.72;;;2.15;82.76
13241;BME280;6687;47.790;7.322;2023-03-04T08:24:47;99684.72;;;2.37;82.88
13241;BME280;6687;47.790;7.322;2023-03-04T08:27:14;99686.69;;;1.89;83.35
13241;BME280;6687;47.790;7.322;2023-03-04T08:29:42;99688.97;;;2.56;83.92
13241;BME280;6687;47.790;7.322;2023-03-04T08:32:09;99687.88;;;2.13;83.14
13241;BME280;6687;47.790;7.322;2023-03-04T08:34:38;99692.41;;;2.37;83.94
13241;BME280;6687;47.790;7.322;2023-03-04T08:37:04;99686.13;;;2.12;83.61
13241;BME280;6687;47.790;7.322;2023-03-04T08:39:31;99697.66;;;2.04;83.49
13241;BME280;6687;47.790;7.322;2023-03-04T08:42:00;99685.78;;;2.42;83.65
13241;BME280;6687;47.790;7.322;2023-03-04T08:44:27;99688.00;;;2.16;83.14
13241;BME280;6687;47.790;7.322;2023-03-04T08:46:55;99694.13;;;2.38;83.65
13241;BME280;6687;47.790;7.322;2023-03-04T08:49:22;99696.78;;;2.22;84.24
13241;BME280;6687;47.790;7.322;2023-03-04T08:51:48;99697.66;;;1.86;84.59
13241;BME280;6687;47.790;7.322;2023-03-04T08:54:15;99686.31;;;2.53;84.68
13241;BME280;6687;47.790;7.322;2023-03-04T08:56:42;99693.84;;;2.32;83.63
13241;BME280;6687;47.790;7.322;2023-03-04T08:59:09;99691.75;;;2.05;84.02
13241;BME280;6687;47.790;7.322;2023-03-04T09:01:35;99694.41;;;2.44;83.26
13241;BME280;6687;47.790;7.322;2023-03-04T09:04:04;99691.47;;;2.54;82.59
13241;BME280;6687;47.790;7.322;2023-03-04T09:06:31;99691.34;;;2.51;82.65
13241;BME280;6687;47.790;7.322;2023-03-04T09:08:58;99698.47;;;2.58;83.62
13241;BME280;6687;47.790;7.322;2023-03-04T09:11:25;99695.59;;;2.51;82.73
13241;BME280;6687;47.790;7.322;2023-03-04T09:13:51;99689.22;;;2.43;84.60
13241;BME280;6687;47.790;7.322;2023-03-04T09:16:18;99689.22;;;2.43;83.03
13241;BME280;6687;47.790;7.322;2023-03-04T09:18:45;99690.16;;;2.45;83.38
13241;BME280;6687;47.790;7.322;2023-03-04T09:21:13;99689.06;;;2.57;84.15
13241;BME280;6687;47.790;7.322;2023-03-04T09:23:40;99685.25;;;2.87;84.50
13241;BME280;6687;47.790;7.322;2023-03-04T09:26:15;99687.41;;;2.77;84.26
13241;BME280;6687;47.790;7.322;2023-03-04T09:28:43;99681.94;;;2.89;83.50
13241;BME280;6687;47.790;7.322;2023-03-04T09:31:10;99686.94;;;2.67;83.13
13241;BME280;6687;47.790;7.322;2023-03-04T09:33:38;99689.09;;;2.39;82.67
13241;BME280;6687;47.790;7.322;2023-03-04T09:36:07;99684.03;;;2.59;81.99
13241;BME280;6687;47.790;7.322;2023-03-04T09:38:35;99679.22;;;3.25;82.69
13241;BME280;6687;47.790;7.322;2023-03-04T09:41:06;99695.81;;;2.75;81.67
13241;BME280;6687;47.790;7.322;2023-03-04T09:43:34;99685.03;;;3.02;81.45
13241;BME280;6687;47.790;7.322;2023-03-04T09:46:04;99679.91;;;3.02;81.93
13241;BME280;6687;47.790;7.322;2023-03-04T09:48:38;99680.69;;;3.20;82.96
13241;BME280;6687;47.790;7.322;2023-03-04T09:51:14;99668.81;;;3.01;79.74
13241;BME280;6687;47.790;7.322;2023-03-04T09:53:53;99675.31;;;3.14;80.49
13241;BME280;6687;47.790;7.322;2023-03-04T09:56:24;99671.31;;;3.40;79.71
13241;BME280;6687;47.790;7.322;2023-03-04T09:58:59;99679.13;;;3.43;80.51
13241;BME280;6687;47.790;7.322;2023-03-04T10:01:33;99676.19;;;3.55;79.16
13241;BME280;6687;47.790;7.322;2023-03-04T10:04:06;99676.94;;;3.73;80.10
13241;BME280;6687;47.790;7.322;2023-03-04T10:06:39;99672.50;;;3.69;77.69
13241;BME280;6687;47.790;7.322;2023-03-04T10:09:13;99663.47;;;4.44;79.35
13241;BME280;6687;47.790;7.322;2023-03-04T10:11:44;99666.63;;;3.93;77.97
13241;BME280;6687;47.790;7.322;2023-03-04T10:14:28;99672.47;;;4.11;78.36
13241;BME280;6687;47.790;7.322;2023-03-04T10:16:59;99664.22;;;4.18;78.21
13241;BME280;6687;47.790;7.322;2023-03-04T10:19:35;99663.41;;;4.42;78.20
13241;BME280;6687;47.790;7.322;2023-03-04T10:22:14;99653.56;;;4.30;76.68
13241;BME280;6687;47.790;7.322;2023-03-04T10:24:44;99658.75;;;4.78;77.94
13241;BME280;6687;47.790;7.322;2023-03-04T10:27:14;99663.72;;;4.74;75.92
13241;BME280;6687;47.790;7.322;2023-03-04T10:29:42;99650.44;;;4.62;75.06
13241;BME280;6687;47.790;7.322;2023-03-04T10:32:11;99659.44;;;4.50;74.71
13241;BME280;6687;47.790;7.322;2023-03-04T10:34:40;99658.97;;;4.85;74.94
13241;BME280;6687;47.790;7.322;2023-03-04T10:37:07;99659.88;;;4.63;73.86
13241;BME280;6687;47.790;7.322;2023-03-04T10:39:36;99653.34;;;4.71;72.70
13241;BME280;6687;47.790;7.322;2023-03-04T10:42:06;99654.22;;;4.95;72.65
13241;BME280;6687;47.790;7.322;2023-03-04T10:44:51;99656.00;;;5.22;72.07
13241;BME280;6687;47.790;7.322;2023-03-04T10:47:18;99657.31;;;5.11;71.23
13241;BME280;6687;47.790;7.322;2023-03-04T10:49:50;99659.09;;;5.12;70.93
13241;BME280;6687;47.790;7.322;2023-03-04T10:52:25;99651.75;;;4.98;72.26
13241;BME280;6687;47.790;7.322;2023-03-04T10:54:54;99648.63;;;5.07;70.73
13241;BME280;6687;47.790;7.322;2023-03-04T10:57:32;99643.94;;;5.45;71.01
13241;BME280;6687;47.790;7.322;2023-03-04T11:00:02;99648.81;;;5.63;71.58
13241;BME280;6687;47.790;7.322;2023-03-04T11:02:32;99645.53;;;5.67;70.58
13241;BME280;6687;47.790;7.322;2023-03-04T11:05:16;99640.38;;;5.67;72.50
13241;BME280;6687;47.790;7.322;2023-03-04T11:07:45;99637.38;;;5.53;70.26
13241;BME280;6687;47.790;7.322;2023-03-04T11:10:17;99642.66;;;5.32;70.24
13241;BME280;6687;47.790;7.322;2023-03-04T11:12:51;99635.59;;;5.52;69.18
13241;BME280;6687;47.790;7.322;2023-03-04T11:15:24;99636.59;;;5.83;68.35
13241;BME280;6687;47.790;7.322;2023-03-04T11:17:55;99617.81;;;5.86;68.89
13241;BME280;6687;47.790;7.322;2023-03-04T11:20:31;99624.47;;;6.06;68.66
13241;BME280;6687;47.790;7.322;2023-03-04T11:23:04;99620.91;;;6.01;68.71
13241;BME280;6687;47.790;7.322;2023-03-04T11:25:34;99617.50;;;6.02;70.33
13241;BME280;6687;47.790;7.322;2023-03-04T11:28:09;99610.72;;;6.33;68.76
13241;BME280;6687;47.790;7.322;2023-03-04T11:30:43;99606.41;;;6.05;69.08
13241;BME280;6687;47.790;7.322;2023-03-04T11:33:16;99612.72;;;6.14;66.38
13241;BME280;6687;47.790;7.322;2023-03-04T11:36:05;99605.28;;;5.95;65.86
13241;BME280;6687;47.790;7.322;2023-03-04T11:38:40;99605.16;;;6.49;66.33
13241;BME280;6687;47.790;7.322;2023-03-04T11:41:11;99617.00;;;6.14;65.71
13241;BME280;6687;47.790;7.322;2023-03-04T11:43:42;99608.13;;;6.33;66.16
13241;BME280;6687;47.790;7.322;2023-03-04T11:46:34;99598.88;;;6.70;69.80
13241;BME280;6687;47.790;7.322;2023-03-04T11:49:17;99595.22;;;6.62;67.92
13241;BME280;6687;47.790;7.322;2023-03-04T11:51:56;99584.00;;;6.91;67.75
13241;BME280;6687;47.790;7.322;2023-03-04T11:54:31;99582.19;;;6.87;68.12
13241;BME280;6687;47.790;7.322;2023-03-04T11:57:07;99587.00;;;6.75;66.80
13241;BME280;6687;47.790;7.322;2023-03-04T11:59:48;99585.50;;;6.83;67.12
13241;BME280;6687;47.790;7.322;2023-03-04T12:02:24;99577.75;;;7.15;69.43
13241;BME280;6687;47.790;7.322;2023-03-04T12:05:10;99565.00;;;6.56;64.47
13241;BME280;6687;47.790;7.322;2023-03-04T12:08:13;99564.78;;;7.12;67.52
13241;BME280;6687;47.790;7.322;2023-03-04T12:10:48;99564.16;;;6.55;64.31
13241;BME280;6687;47.790;7.322;2023-03-04T12:13:32;99559.41;;;7.03;66.54
13241;BME280;6687;47.790;7.322;2023-03-04T12:16:14;99557.94;;;6.79;63.65
13241;BME280;6687;47.790;7.322;2023-03-04T12:18:51;99553.94;;;7.25;65.46
13241;BME280;6687;47.790;7.322;2023-03-04T12:21:38;99549.22;;;7.07;64.19
13241;BME280;6687;47.790;7.322;2023-03-04T12:24:25;99541.25;;;7.33;64.66
13241;BME280;6687;47.790;7.322;2023-03-04T12:26:57;99536.75;;;7.24;65.95
13241;BME280;6687;47.790;7.322;2023-03-04T12:29:32;99533.00;;;7.48;65.56
13241;BME280;6687;47.790;7.322;2023-03-04T12:32:10;99528.69;;;7.47;65.55
13241;BME280;6687;47.790;7.322;2023-03-04T12:35:08;99517.16;;;7.69;68.09
13241;BME280;6687;47.790;7.322;2023-03-04T12:37:50;99516.34;;;7.33;62.88
13241;BME280;6687;47.790;7.322;2023-03-04T12:40:26;99512.31;;;7.10;61.65
13241;BME280;6687;47.790;7.322;2023-03-04T12:43:18;99508.44;;;7.62;64.79
13241;BME280;6687;47.790;7.322;2023-03-04T12:45:57;99504.81;;;7.55;61.79
13241;BME280;6687;47.790;7.322;2023-03-04T12:48:30;99498.41;;;7.77;62.56
13241;BME280;6687;47.790;7.322;2023-03-04T12:51:14;99503.41;;;7.30;60.20
13241;BME280;6687;47.790;7.322;2023-03-04T12:53:50;99496.44;;;7.64;63.61
13241;BME280;6687;47.790;7.322;2023-03-04T12:56:24;99496.44;;;7.28;60.74
13241;BME280;6687;47.790;7.322;2023-03-04T12:58:52;99493.34;;;7.81;61.49
13241;BME280;6687;47.790;7.322;2023-03-04T13:01:23;99488.09;;;7.76;61.69
13241;BME280;6687;47.790;7.322;2023-03-04T13:03:57;99483.53;;;7.64;61.46
13241;BME280;6687;47.790;7.322;2023-03-04T13:06:33;99482.25;;;7.85;62.82
13241;BME280;6687;47.790;7.322;2023-03-04T13:09:04;99485.09;;;7.97;61.22
13241;BME280;6687;47.790;7.322;2023-03-04T13:11:42;99486.88;;;8.01;61.94
13241;BME280;6687;47.790;7.322;2023-03-04T13:14:31;99483.94;;;7.83;59.80
13241;BME280;6687;47.790;7.322;2023-03-04T13:16:59;99473.03;;;7.96;61.99
13241;BME280;6687;47.790;7.322;2023-03-04T13:19:49;99472.41;;;8.09;58.93
13241;BME280;6687;47.790;7.322;2023-03-04T13:22:33;99464.75;;;8.12;58.62
13241;BME280;6687;47.790;7.322;2023-03-04T13:25:31;99464.94;;;8.23;58.66
13241;BME280;6687;47.790;7.322;2023-03-04T13:28:18;99459.59;;;8.56;62.74
13241;BME280;6687;47.790;7.322;2023-03-04T13:31:16;99460.56;;;8.62;63.67
13241;BME280;6687;47.790;7.322;2023-03-04T13:34:01;99455.81;;;8.41;61.85
13241;BME280;6687;47.790;7.322;2023-03-04T13:36:57;99451.66;;;8.47;58.60
13241;BME280;6687;47.790;7.322;2023-03-04T13:39:33;99459.22;;;8.38;60.97
13241;BME280;6687;47.790;7.322;2023-03-04T13:42:02;99452.84;;;8.65;58.98
13241;BME280;6687;47.790;7.322;2023-03-04T13:44:34;99455.31;;;8.59;59.29
13241;BME280;6687;47.790;7.322;2023-03-04T13:47:29;99454.81;;;8.78;58.76
13241;BME280;6687;47.790;7.322;2023-03-04T13:50:18;99446.28;;;8.85;58.88
13241;BME280;6687;47.790;7.322;2023-03-04T13:52:49;99443.41;;;8.67;55.81
13241;BME280;6687;47.790;7.322;2023-03-04T13:55:36;99443.94;;;8.98;58.47
13241;BME280;6687;47.790;7.322;2023-03-04T13:58:22;99450.53;;;8.80;57.15
13241;BME280;6687;47.790;7.322;2023-03-04T14:00:51;99436.91;;;8.90;55.34
13241;BME280;6687;47.790;7.322;2023-03-04T14:03:21;99444.78;;;8.98;57.77
13241;BME280;6687;47.790;7.322;2023-03-04T14:06:09;99436.00;;;8.38;54.51
13241;BME280;6687;47.790;7.322;2023-03-04T14:08:38;99437.75;;;8.88;55.39
13241;BME280;6687;47.790;7.322;2023-03-04T14:11:04;99426.91;;;9.12;57.65
13241;BME280;6687;47.790;7.322;2023-03-04T14:13:36;99434.13;;;8.31;54.73
13241;BME280;6687;47.790;7.322;2023-03-04T14:16:03;99436.03;;;8.88;57.01
13241;BME280;6687;47.790;7.322;2023-03-04T14:18:30;99430.38;;;9.14;58.96
13241;BME280;6687;47.790;7.322;2023-03-04T14:20:58;99424.78;;;8.86;54.44
13241;BME280;6687;47.790;7.322;2023-03-04T14:23:27;99427.84;;;8.62;54.66
13241;BME280;6687;47.790;7.322;2023-03-04T14:26:08;99413.41;;;8.73;55.68
13241;BME280;6687;47.790;7.322;2023-03-04T14:28:42;99410.03;;;8.79;54.17
13241;BME280;6687;47.790;7.322;2023-03-04T14:31:15;99416.22;;;8.87;55.40
13241;BME280;6687;47.790;7.322;2023-03-04T14:33:44;99404.47;;;9.11;58.72
13241;BME280;6687;47.790;7.322;2023-03-04T14:36:15;99410.88;;;8.78;54.89
13241;BME280;6687;47.790;7.322;2023-03-04T14:38:43;99401.78;;;9.02;58.26
13241;BME280;6687;47.790;7.322;2023-03-04T14:41:21;99400.31;;;9.19;59.35
13241;BME280;6687;47.790;7.322;2023-03-04T14:43:52;99397.31;;;8.91;54.73
13241;BME280;6687;47.790;7.322;2023-03-04T14:46:22;99403.16;;;8.80;54.10
13241;BME280;6687;47.790;7.322;2023-03-04T14:48:52;99391.84;;;8.73;55.61
13241;BME280;6687;47.790;7.322;2023-03-04T14:51:30;99392.34;;;8.50;53.25
13241;BME280;6687;47.790;7.322;2023-03-04T14:53:57;99392.19;;;8.94;53.16
13241;BME280;6687;47.790;7.322;2023-03-04T14:56:30;99395.63;;;8.95;54.53
13241;BME280;6687;47.790;7.322;2023-03-04T14:58:57;99384.44;;;8.94;53.92
13241;BME280;6687;47.790;7.322;2023-03-04T15:01:30;99385.06;;;8.81;53.12
13241;BME280;6687;47.790;7.322;2023-03-04T15:04:00;99385.13;;;8.84;53.68
13241;BME280;6687;47.790;7.322;2023-03-04T15:06:29;99388.44;;;8.74;53.49
13241;BME280;6687;47.790;7.322;2023-03-04T15:08:59;99388.25;;;8.65;52.74
13241;BME280;6687;47.790;7.322;2023-03-04T15:11:30;99381.47;;;8.70;53.45
13241;BME280;6687;47.790;7.322;2023-03-04T15:13:59;99385.41;;;8.48;52.89
13241;BME280;6687;47.790;7.322;2023-03-04T15:16:28;99384.66;;;8.53;52.91
13241;BME280;6687;47.790;7.322;2023-03-04T15:18:57;99383.16;;;8.68;53.28
13241;BME280;6687;47.790;7.322;2023-03-04T15:21:34;99382.56;;;8.34;53.30
13241;BME280;6687;47.790;7.322;2023-03-04T15:24:03;99376.41;;;8.76;55.73
13241;BME280;6687;47.790;7.322;2023-03-04T15:26:33;99380.88;;;8.86;55.56
13241;BME280;6687;47.790;7.322;2023-03-04T15:29:02;99386.63;;;8.70;54.21
13241;BME280;6687;47.790;7.322;2023-03-04T15:31:29;99380.03;;;8.87;55.27
13241;BME280;6687;47.790;7.322;2023-03-04T15:33:56;99386.53;;;8.64;54.57
13241;BME280;6687;47.790;7.322;2023-03-04T15:36:22;99373.84;;;8.78;55.40
13241;BME280;6687;47.790;7.322;2023-03-04T15:38:51;99372.34;;;8.92;54.04
13241;BME280;6687;47.790;7.322;2023-03-04T15:41:21;99377.41;;;8.86;55.95
13241;BME280;6687;47.790;7.322;2023-03-04T15:43:51;99389.44;;;8.35;54.02
13241;BME280;6687;47.790;7.322;2023-03-04T15:46:19;99384.25;;;8.32;55.36
13241;BME280;6687;47.790;7.322;2023-03-04T15:48:46;99381.00;;;8.42;55.22
13241;BME280;6687;47.790;7.322;2023-03-04T15:51:14;99389.19;;;8.21;54.91
13241;BME280;6687;47.790;7.322;2023-03-04T15:53:43;99389.59;;;8.41;54.36
13241;BME280;6687;47.790;7.322;2023-03-04T15:56:14;99385.66;;;8.14;54.28
13241;BME280;6687;47.790;7.322;2023-03-04T15:58:42;99389.06;;;8.12;55.17
13241;BME280;6687;47.790;7.322;2023-03-04T16:01:15;99385.94;;;8.30;54.56
13241;BME280;6687;47.790;7.322;2023-03-04T16:03:42;99389.56;;;7.95;54.96
13241;BME280;6687;47.790;7.322;2023-03-04T16:06:10;99383.88;;;8.13;54.79
13241;BME280;6687;47.790;7.322;2023-03-04T16:08:37;99391.00;;;8.24;56.09
13241;BME280;6687;47.790;7.322;2023-03-04T16:11:05;99390.47;;;7.96;55.54
13241;BME280;6687;47.790;7.322;2023-03-04T16:13:32;99391.41;;;7.57;54.98
13241;BME280;6687;47.790;7.322;2023-03-04T16:15:58;99393.00;;;7.52;55.81
13241;BME280;6687;47.790;7.322;2023-03-04T16:18:26;99393.28;;;7.64;55.35
13241;BME280;6687;47.790;7.322;2023-03-04T16:20:53;99393.94;;;7.16;56.25
13241;BME280;6687;47.790;7.322;2023-03-04T16:23:22;99401.91;;;7.66;56.13
13241;BME280;6687;47.790;7.322;2023-03-04T16:25:51;99402.88;;;7.30;57.15
13241;BME280;6687;47.790;7.322;2023-03-04T16:28:19;99402.63;;;7.20;56.38
13241;BME280;6687;47.790;7.322;2023-03-04T16:30:47;99403.44;;;7.17;56.42
13241;BME280;6687;47.790;7.322;2023-03-04T16:33:14;99400.84;;;7.17;57.07
13241;BME280;6687;47.790;7.322;2023-03-04T16:35:43;99401.06;;;7.26;56.91
13241;BME280;6687;47.790;7.322;2023-03-04T16:38:17;99401.56;;;7.11;58.03
13241;BME280;6687;47.790;7.322;2023-03-04T16:40:45;99397.84;;;7.36;57.30
13241;BME280;6687;47.790;7.322;2023-03-04T16:43:12;99404.28;;;6.80;57.03
13241;BME280;6687;47.790;7.322;2023-03-04T16:45:40;99401.69;;;6.80;58.36
13241;BME280;6687;47.790;7.322;2023-03-04T16:48:07;99402.75;;;7.26;57.36
13241;BME280;6687;47.790;7.322;2023-03-04T16:50:34;99409.38;;;6.78;56.94
13241;BME280;6687;47.790;7.322;2023-03-04T16:53:04;99419.00;;;6.85;56.87
13241;BME280;6687;47.790;7.322;2023-03-04T16:55:31;99411.91;;;6.42;57.69
13241;BME280;6687;47.790;7.322;2023-03-04T16:57:57;99416.25;;;6.44;58.23
13241;BME280;6687;47.790;7.322;2023-03-04T17:00:27;99412.78;;;6.42;58.33
13241;BME280;6687;47.790;7.322;2023-03-04T17:02:56;99425.66;;;6.10;58.43
13241;BME280;6687;47.790;7.322;2023-03-04T17:05:25;99415.78;;;6.26;58.63
13241;BME280;6687;47.790;7.322;2023-03-04T17:07:52;99422.81;;;6.31;58.22
13241;BME280;6687;47.790;7.322;2023-03-04T17:10:21;99422.97;;;6.06;58.96
13241;BME280;6687;47.790;7.322;2023-03-04T17:12:48;99419.19;;;5.94;58.72
13241;BME280;6687;47.790;7.322;2023-03-04T17:15:15;99419.88;;;5.89;59.52
13241;BME280;6687;47.790;7.322;2023-03-04T17:17:43;99423.06;;;6.09;59.03
13241;BME280;6687;47.790;7.322;2023-03-04T17:20:12;99431.59;;;5.77;59.36
13241;BME280;6687;47.790;7.322;2023-03-04T17:22:39;99438.22;;;5.69;59.52
13241;BME280;6687;47.790;7.322;2023-03-04T17:25:07;99433.16;;;5.72;60.24
13241;BME280;6687;47.790;7.322;2023-03-04T17:27:35;99433.84;;;5.67;60.16
13241;BME280;6687;47.790;7.322;2023-03-04T17:30:02;99436.75;;;5.20;61.14
13241;BME280;6687;47.790;7.322;2023-03-04T17:32:30;99440.81;;;5.13;61.08
13241;BME280;6687;47.790;7.322;2023-03-04T17:34:57;99443.03;;;5.30;61.24
13241;BME280;6687;47.790;7.322;2023-03-04T17:37:24;99441.25;;;5.56;62.43
13241;BME280;6687;47.790;7.322;2023-03-04T17:39:51;99454.16;;;5.02;61.41
13241;BME280;6687;47.790;7.322;2023-03-04T17:42:18;99453.50;;;5.09;61.60
13241;BME280;6687;47.790;7.322;2023-03-04T17:44:46;99459.56;;;5.11;62.13
13241;BME280;6687;47.790;7.322;2023-03-04T17:47:13;99454.94;;;5.01;61.60
13241;BME280;6687;47.790;7.322;2023-03-04T17:49:40;99460.00;;;4.97;62.19
13241;BME280;6687;47.790;7.322;2023-03-04T17:52:07;99463.19;;;4.90;62.21
13241;BME280;6687;47.790;7.322;2023-03-04T17:54:34;99463.34;;;4.69;62.17
13241;BME280;6687;47.790;7.322;2023-03-04T17:57:02;99464.91;;;4.91;61.83
13241;BME280;6687;47.790;7.322;2023-03-04T17:59:29;99463.47;;;4.72;62.99
13241;BME280;6687;47.790;7.322;2023-03-04T18:01:57;99457.19;;;4.90;63.09
13241;BME280;6687;47.790;7.322;2023-03-04T18:04:24;99468.13;;;4.84;62.90
13241;BME280;6687;47.790;7.322;2023-03-04T18:06:50;99467.25;;;4.84;63.53
13241;BME280;6687;47.790;7.322;2023-03-04T18:09:17;99466.66;;;4.41;63.22
13241;BME280;6687;47.790;7.322;2023-03-04T18:11:44;99469.38;;;4.70;63.90
13241;BME280;6687;47.790;7.322;2023-03-04T18:14:11;99470.19;;;4.19;63.64
13241;BME280;6687;47.790;7.322;2023-03-04T18:16:38;99477.91;;;4.45;63.69
13241;BME280;6687;47.790;7.322;2023-03-04T18:19:06;99481.03;;;4.36;63.53
13241;BME280;6687;47.790;7.322;2023-03-04T18:21:34;99486.44;;;4.44;63.59
13241;BME280;6687;47.790;7.322;2023-03-04T18:24:01;99481.31;;;4.44;64.10
13241;BME280;6687;47.790;7.322;2023-03-04T18:26:28;99477.00;;;4.18;63.81
13241;BME280;6687;47.790;7.322;2023-03-04T18:28:55;99488.94;;;3.94;64.65
13241;BME280;6687;47.790;7.322;2023-03-04T18:31:23;99489.38;;;4.30;64.26
13241;BME280;6687;47.790;7.322;2023-03-04T18:33:50;99486.00;;;4.07;64.32
13241;BME280;6687;47.790;7.322;2023-03-04T18:36:19;99494.59;;;4.09;63.97
13241;BME280;6687;47.790;7.322;2023-03-04T18:38:46;99496.22;;;3.83;64.62
13241;BME280;6687;47.790;7.322;2023-03-04T18:41:14;99494.81;;;4.15;64.97
13241;BME280;6687;47.790;7.322;2023-03-04T18:43:41;99484.88;;;3.76;65.27
13241;BME280;6687;47.790;7.322;2023-03-04T18:46:10;99493.13;;;3.69;65.01
13241;BME280;6687;47.790;7.322;2023-03-04T18:48:43;99508.06;;;3.57;65.41
13241;BME280;6687;47.790;7.322;2023-03-04T18:51:11;99499.84;;;3.88;64.88
13241;BME280;6687;47.790;7.322;2023-03-04T18:53:39;99496.66;;;3.95;64.77
13241;BME280;6687;47.790;7.322;2023-03-04T18:56:10;99507.44;;;3.42;65.59
13241;BME280;6687;47.790;7.322;2023-03-04T18:58:39;99511.00;;;3.45;65.96
13241;BME280;6687;47.790;7.322;2023-03-04T19:01:08;99517.69;;;3.42;66.16
13241;BME280;6687;47.790;7.322;2023-03-04T19:03:36;99517.38;;;3.55;66.54
13241;BME280;6687;47.790;7.322;2023-03-04T19:06:05;99525.28;;;3.61;66.18
13241;BME280;6687;47.790;7.322;2023-03-04T19:08:33;99517.59;;;3.38;66.23
13241;BME280;6687;47.790;7.322;2023-03-04T19:11:01;99521.53;;;3.30;66.89
13241;BME280;6687;47.790;7.322;2023-03-04T19:13:30;99522.84;;;3.64;68.69
13241;BME280;6687;47.790;7.322;2023-03-04T19:15:57;99518.03;;;3.28;66.77
13241;BME280;6687;47.790;7.322;2023-03-04T19:18:24;99523.19;;;3.30;66.93
13241;BME280;6687;47.790;7.322;2023-03-04T19:20:50;99519.09;;;3.33;66.39
13241;BME280;6687;47.790;7.322;2023-03-04T19:23:17;99527.25;;;3.46;66.82
13241;BME280;6687;47.790;7.322;2023-03-04T19:25:44;99520.03;;;3.58;66.41
13241;BME280;6687;47.790;7.322;2023-03-04T19:28:12;99519.69;;;3.49;66.27
13241;BME280;6687;47.790;7.322;2023-03-04T19:30:40;99521.44;;;3.50;66.61
13241;BME280;6687;47.790;7.322;2023-03-04T19:33:07;99522.66;;;3.16;67.16
13241;BME280;6687;47.790;7.322;2023-03-04T19:35:39;99524.13;;;3.53;66.46
13241;BME280;6687;47.790;7.322;2023-03-04T19:38:06;99518.44;;;3.39;66.83
13241;BME280;6687;47.790;7.322;2023-03-04T19:40:33;99520.03;;;3.58;66.24
13241;BME280;6687;47.790;7.322;2023-03-04T19:43:00;99516.38;;;3.74;66.75
13241;BME280;6687;47.790;7.322;2023-03-04T19:45:28;99517.81;;;3.45;67.90
13241;BME280;6687;47.790;7.322;2023-03-04T19:47:55;99516.19;;;3.47;66.60
13241;BME280;6687;47.790;7.322;2023-03-04T19:50:23;99519.47;;;3.43;66.24
13241;BME280;6687;47.790;7.322;2023-03-04T19:52:51;99516.91;;;3.65;66.52